sensor_id;sensor_type;location;lat;lon;timestamp;temperature;humidity
47921;DHT22;33686;48.770;9.186;2024-01-30T06:18:07;2.90;99.90
47921;DHT22;33686;48.770;9.186;2024-01-30T06:20:32;2.90;99.90
47921;DHT22;33686;48.770;9.186;2024-01-30T06:22:58;2.80;99.90
47921;DHT22;33686;48.770;9.186;2024-01-30T06:25:24;2.80;99.90
47921;DHT22;33686;48.770;9.186;2024-01-30T06:30:24;2.90;99.90
47921;DHT22;33686;48.770;9.186;2024-01-30T06:32:50;2.90;99.90
47921;DHT22;33686;48.770;9.186;2024-01-30T06:35:15;3.00;99.90
47921;DHT22;33686;48.770;9.186;2024-01-30T06:37:42;2.90;99.90
47921;DHT22;33686;48.770;9.186;2024-01-30T06:40:08;2.90;99.90
47921;DHT22;33686;48.770;9.186;2024-01-30T06:42:34;2.90;99.90
47921;DHT22;33686;48.770;9.186;2024-01-30T06:45:00;2.90;99.90
47921;DHT22;33686;48.770;9.186;2024-01-30T06:47:25;2.90;99.90
47921;DHT22;33686;48.770;9.186;2024-01-30T06:49:51;3.00;99.90
47921;DHT22;33686;48.770;9.186;2024-01-30T06:52:17;3.00;99.90
47921;DHT22;33686;48.770;9.186;2024-01-30T06:54:42;3.00;99.90
47921;DHT22;33686;48.770;9.186;2024-01-30T06:57:08;2.90;99.90
47921;DHT22;33686;48.770;9.186;2024-01-30T06:59:37;2.90;99.90
47921;DHT22;33686;48.770;9.186;2024-01-30T07:02:12;2.90;99.90
47921;DHT22;33686;48.770;9.186;2024-01-30T07:04:37;2.90;99.90
47921;DHT22;33686;48.770;9.186;2024-01-30T07:07:04;2.90;99.90
47921;DHT22;33686;48.770;9.186;2024-01-30T07:09:31;3.00;99.90
47921;DHT22;33686;48.770;9.186;2024-01-30T07:11:56;3.00;99.90
47921;DHT22;33686;48.770;9.186;2024-01-30T07:14:24;3.00;99.90
47921;DHT22;33686;48.770;9.186;2024-01-30T07:16:50;3.10;99.90
47921;DHT22;33686;48.770;9.186;2024-01-30T07:19:16;3.10;99.90
47921;DHT22;33686;48.770;9.186;2024-01-30T07:21:42;3.20;99.90
47921;DHT22;33686;48.770;9.186;2024-01-30T07:24:08;3.20;99.90
47921;DHT22;33686;48.770;9.186;2024-01-30T07:26:33;3.30;99.90
47921;DHT22;33686;48.770;9.186;2024-01-30T07:28:59;3.30;99.90
47921;DHT22;33686;48.770;9.186;2024-01-30T07:31:24;3.30;99.90
47921;DHT22;33686;48.770;9.186;2024-01-30T07:33:50;3.40;99.90
47921;DHT22;33686;48.770;9.186;2024-01-30T07:36:16;3.30;99.90
47921;DHT22;33686;48.770;9.186;2024-01-30T07:38:41;3.30;99.90
47921;DHT22;33686;48.770;9.186;2024-01-30T07:41:07;3.40;99.90
47921;DHT22;33686;48.770;9.186;2024-01-30T07:43:33;3.50;99.90
47921;DHT22;33686;48.770;9.186;2024-01-30T07:45:59;3.60;99.90
47921;DHT22;33686;48.770;9.186;2024-01-30T07:48:26;3.70;99.90
47921;DHT22;33686;48.770;9.186;2024-01-30T07:50:51;3.90;99.90
47921;DHT22;33686;48.770;9.186;2024-01-30T07:53:17;4.10;99.90
47921;DHT22;33686;48.770;9.186;2024-01-30T07:55:43;4.30;99.90
47921;DHT22;33686;48.770;9.186;2024-01-30T07:58:12;4.40;99.90
47921;DHT22;33686;48.770;9.186;2024-01-30T08:00:37;4.50;99.90
47921;DHT22;33686;48.770;9.186;2024-01-30T08:03:04;4.70;99.90
47921;DHT22;33686;48.770;9.186;2024-01-30T08:05:29;5.10;99.90
47921;DHT22;33686;48.770;9.186;2024-01-30T08:07:55;5.60;99.90
47921;DHT22;33686;48.770;9.186;2024-01-30T08:10:21;6.10;99.90
47921;DHT22;33686;48.770;9.186;2024-01-30T08:12:46;6.70;99.90
47921;DHT22;33686;48.770;9.186;2024-01-30T08:15:12;7.10;99.90
47921;DHT22;33686;48.770;9.186;2024-01-30T08:17:38;7.40;99.90
47921;DHT22;33686;48.770;9.186;2024-01-30T08:20:04;7.90;99.90
47921;DHT22;33686;48.770;9.186;2024-01-30T08:22:31;8.20;99.90
47921;DHT22;33686;48.770;9.186;2024-01-30T08:24:56;8.40;99.90
47921;DHT22;33686;48.770;9.186;2024-01-30T08:27:22;9.10;99.90
47921;DHT22;33686;48.770;9.186;2024-01-30T08:29:47;9.80;99.90
47921;DHT22;33686;48.770;9.186;2024-01-30T08:32:13;10.50;99.90
47921;DHT22;33686;48.770;9.186;2024-01-30T08:34:39;10.90;99.90
47921;DHT22;33686;48.770;9.186;2024-01-30T08:37:04;11.30;99.90
47921;DHT22;33686;48.770;9.186;2024-01-30T08:39:30;11.60;99.90
47921;DHT22;33686;48.770;9.186;2024-01-30T08:41:56;12.20;99.90
47921;DHT22;33686;48.770;9.186;2024-01-30T08:44:21;12.50;99.90
47921;DHT22;33686;48.770;9.186;2024-01-30T08:46:47;12.00;99.90
47921;DHT22;33686;48.770;9.186;2024-01-30T08:49:14;12.40;99.90
47921;DHT22;33686;48.770;9.186;2024-01-30T08:51:41;12.30;99.90
47921;DHT22;33686;48.770;9.186;2024-01-30T08:54:07;12.20;99.90
47921;DHT22;33686;48.770;9.186;2024-01-30T08:56:32;11.80;99.90
47921;DHT22;33686;48.770;9.186;2024-01-30T08:58:58;11.90;99.90
47921;DHT22;33686;48.770;9.186;2024-01-30T09:01:25;10.90;99.90
47921;DHT22;33686;48.770;9.186;2024-01-30T09:03:50;10.40;99.90
47921;DHT22;33686;48.770;9.186;2024-01-30T09:06:16;10.30;99.90
47921;DHT22;33686;48.770;9.186;2024-01-30T09:08:42;10.10;99.90
47921;DHT22;33686;48.770;9.186;2024-01-30T09:11:14;10.00;99.90
47921;DHT22;33686;48.770;9.186;2024-01-30T09:13:40;10.50;99.90
47921;DHT22;33686;48.770;9.186;2024-01-30T09:16:06;10.20;99.90
47921;DHT22;33686;48.770;9.186;2024-01-30T09:18:32;9.70;99.90
47921;DHT22;33686;48.770;9.186;2024-01-30T09:20:58;9.20;99.90
47921;DHT22;33686;48.770;9.186;2024-01-30T09:23:24;9.30;99.90
47921;DHT22;33686;48.770;9.186;2024-01-30T09:25:50;8.80;99.90
47921;DHT22;33686;48.770;9.186;2024-01-30T09:28:17;8.70;99.90
47921;DHT22;33686;48.770;9.186;2024-01-30T09:30:43;8.90;99.90
47921;DHT22;33686;48.770;9.186;2024-01-30T09:33:09;8.80;99.90
47921;DHT22;33686;48.770;9.186;2024-01-30T09:35:35;8.70;99.90
47921;DHT22;33686;48.770;9.186;2024-01-30T09:38:02;8.50;99.90
47921;DHT22;33686;48.770;9.186;2024-01-30T09:40:28;8.50;99.90
47921;DHT22;33686;48.770;9.186;2024-01-30T09:42:54;8.50;99.90
47921;DHT22;33686;48.770;9.186;2024-01-30T09:45:24;8.60;99.90
47921;DHT22;33686;48.770;9.186;2024-01-30T09:47:49;8.20;99.90
47921;DHT22;33686;48.770;9.186;2024-01-30T09:50:15;8.30;99.90
47921;DHT22;33686;48.770;9.186;2024-01-30T09:52:43;8.60;99.90
47921;DHT22;33686;48.770;9.186;2024-01-30T09:55:09;8.20;99.90
47921;DHT22;33686;48.770;9.186;2024-01-30T09:57:35;8.30;99.90
47921;DHT22;33686;48.770;9.186;2024-01-30T10:00:02;8.20;99.90
47921;DHT22;33686;48.770;9.186;2024-01-30T10:02:38;8.40;99.90
47921;DHT22;33686;48.770;9.186;2024-01-30T10:05:04;8.70;99.90
47921;DHT22;33686;48.770;9.186;2024-01-30T10:07:30;8.60;99.90
47921;DHT22;33686;48.770;9.186;2024-01-30T10:09:56;8.90;99.90
47921;DHT22;33686;48.770;9.186;2024-01-30T10:12:22;9.10;99.90
47921;DHT22;33686;48.770;9.186;2024-01-30T10:14:48;9.10;99.90
47921;DHT22;33686;48.770;9.186;2024-01-30T10:17:14;8.80;99.90
47921;DHT22;33686;48.770;9.186;2024-01-30T10:19:40;8.70;99.90
47921;DHT22;33686;48.770;9.186;2024-01-30T10:22:06;8.60;99.90
47921;DHT22;33686;48.770;9.186;2024-01-30T10:24:33;8.60;99.90
47921;DHT22;33686;48.770;9.186;2024-01-30T10:26:59;8.80;99.90
47921;DHT22;33686;48.770;9.186;2024-01-30T10:29:25;8.90;99.90
47921;DHT22;33686;48.770;9.186;2024-01-30T10:32:17;9.00;99.90
47921;DHT22;33686;48.770;9.186;2024-01-30T10:34:43;9.00;99.90
47921;DHT22;33686;48.770;9.186;2024-01-30T10:37:10;9.00;99.90
47921;DHT22;33686;48.770;9.186;2024-01-30T10:39:46;8.90;99.90
47921;DHT22;33686;48.770;9.186;2024-01-30T10:42:13;9.10;99.90
47921;DHT22;33686;48.770;9.186;2024-01-30T10:44:56;9.20;99.90
47921;DHT22;33686;48.770;9.186;2024-01-30T10:47:29;9.30;99.90
47921;DHT22;33686;48.770;9.186;2024-01-30T10:49:55;9.40;99.90
47921;DHT22;33686;48.770;9.186;2024-01-30T10:52:24;9.40;99.90
47921;DHT22;33686;48.770;9.186;2024-01-30T10:54:54;9.50;99.90
47921;DHT22;33686;48.770;9.186;2024-01-30T10:57:25;9.50;99.90
47921;DHT22;33686;48.770;9.186;2024-01-30T10:59:57;9.70;99.90
47921;DHT22;33686;48.770;9.186;2024-01-30T11:02:24;9.60;99.90
47921;DHT22;33686;48.770;9.186;2024-01-30T11:04:54;9.60;99.90
47921;DHT22;33686;48.770;9.186;2024-01-30T11:07:25;9.40;99.90
47921;DHT22;33686;48.770;9.186;2024-01-30T11:10:02;9.30;99.90
47921;DHT22;33686;48.770;9.186;2024-01-30T11:12:29;9.40;99.90
47921;DHT22;33686;48.770;9.186;2024-01-30T11:15:24;9.50;99.90
47921;DHT22;33686;48.770;9.186;2024-01-30T11:17:52;9.70;99.90
47921;DHT22;33686;48.770;9.186;2024-01-30T11:20:29;9.80;99.90
47921;DHT22;33686;48.770;9.186;2024-01-30T11:22:59;9.90;99.90
47921;DHT22;33686;48.770;9.186;2024-01-30T11:25:25;9.90;99.90
47921;DHT22;33686;48.770;9.186;2024-01-30T11:27:53;9.90;99.90
47921;DHT22;33686;48.770;9.186;2024-01-30T11:30:30;9.80;99.90
47921;DHT22;33686;48.770;9.186;2024-01-30T11:35:35;9.90;99.90
47921;DHT22;33686;48.770;9.186;2024-01-30T11:38:02;9.90;99.90
47921;DHT22;33686;48.770;9.186;2024-01-30T11:40:29;10.00;99.90
47921;DHT22;33686;48.770;9.186;2024-01-30T11:42:58;10.20;99.90
47921;DHT22;33686;48.770;9.186;2024-01-30T11:45:24;10.30;99.90
47921;DHT22;33686;48.770;9.186;2024-01-30T11:47:50;10.40;99.90
47921;DHT22;33686;48.770;9.186;2024-01-30T11:50:16;10.40;99.90
47921;DHT22;33686;48.770;9.186;2024-01-30T11:52:42;10.50;99.90
47921;DHT22;33686;48.770;9.186;2024-01-30T11:55:09;10.30;99.90
47921;DHT22;33686;48.770;9.186;2024-01-30T11:57:36;10.30;99.90
47921;DHT22;33686;48.770;9.186;2024-01-30T12:00:05;10.50;99.90
47921;DHT22;33686;48.770;9.186;2024-01-30T12:02:36;10.60;99.90
47921;DHT22;33686;48.770;9.186;2024-01-30T12:05:06;10.40;99.90
47921;DHT22;33686;48.770;9.186;2024-01-30T12:07:32;10.50;99.90
47921;DHT22;33686;48.770;9.186;2024-01-30T12:09:58;10.60;99.90
47921;DHT22;33686;48.770;9.186;2024-01-30T12:12:28;10.70;99.90
47921;DHT22;33686;48.770;9.186;2024-01-30T12:14:54;10.80;99.90
47921;DHT22;33686;48.770;9.186;2024-01-30T12:17:31;10.80;99.90
47921;DHT22;33686;48.770;9.186;2024-01-30T12:20:10;10.70;99.90
47921;DHT22;33686;48.770;9.186;2024-01-30T12:22:37;10.90;99.90
47921;DHT22;33686;48.770;9.186;2024-01-30T12:25:09;11.00;99.90
47921;DHT22;33686;48.770;9.186;2024-01-30T12:27:39;11.00;99.90
47921;DHT22;33686;48.770;9.186;2024-01-30T12:30:12;11.00;99.90
47921;DHT22;33686;48.770;9.186;2024-01-30T12:32:42;10.90;99.90
47921;DHT22;33686;48.770;9.186;2024-01-30T12:35:15;11.00;99.90
47921;DHT22;33686;48.770;9.186;2024-01-30T12:37:43;10.90;99.90
47921;DHT22;33686;48.770;9.186;2024-01-30T12:40:10;11.00;99.90
47921;DHT22;33686;48.770;9.186;2024-01-30T12:42:36;11.10;99.90
47921;DHT22;33686;48.770;9.186;2024-01-30T12:45:03;11.00;99.90
47921;DHT22;33686;48.770;9.186;2024-01-30T12:47:30;10.90;99.90
47921;DHT22;33686;48.770;9.186;2024-01-30T12:49:55;11.00;99.90
47921;DHT22;33686;48.770;9.186;2024-01-30T12:52:22;11.00;99.90
47921;DHT22;33686;48.770;9.186;2024-01-30T12:54:48;11.10;99.90
47921;DHT22;33686;48.770;9.186;2024-01-30T12:57:14;11.10;99.90
47921;DHT22;33686;48.770;9.186;2024-01-30T12:59:40;11.10;99.90
47921;DHT22;33686;48.770;9.186;2024-01-30T13:02:06;11.10;99.90
47921;DHT22;33686;48.770;9.186;2024-01-30T13:04:32;11.40;99.90
47921;DHT22;33686;48.770;9.186;2024-01-30T13:06:58;11.30;99.90
47921;DHT22;33686;48.770;9.186;2024-01-30T13:09:25;11.30;99.90
47921;DHT22;33686;48.770;9.186;2024-01-30T13:11:51;11.40;99.90
47921;DHT22;33686;48.770;9.186;2024-01-30T13:14:17;11.40;99.90
47921;DHT22;33686;48.770;9.186;2024-01-30T13:16:43;11.30;99.90
47921;DHT22;33686;48.770;9.186;2024-01-30T13:19:09;11.40;99.90
47921;DHT22;33686;48.770;9.186;2024-01-30T13:21:34;11.30;99.90
47921;DHT22;33686;48.770;9.186;2024-01-30T13:24:00;11.40;99.90
47921;DHT22;33686;48.770;9.186;2024-01-30T13:26:26;11.50;99.90
47921;DHT22;33686;48.770;9.186;2024-01-30T13:28:51;11.50;99.90
47921;DHT22;33686;48.770;9.186;2024-01-30T13:31:17;11.60;99.90
47921;DHT22;33686;48.770;9.186;2024-01-30T13:33:44;11.70;99.90
47921;DHT22;33686;48.770;9.186;2024-01-30T13:36:10;11.80;99.90
47921;DHT22;33686;48.770;9.186;2024-01-30T13:38:36;11.80;99.90
47921;DHT22;33686;48.770;9.186;2024-01-30T13:41:02;11.80;99.90
47921;DHT22;33686;48.770;9.186;2024-01-30T13:43:28;11.80;99.90
47921;DHT22;33686;48.770;9.186;2024-01-30T13:45:54;11.90;99.90
47921;DHT22;33686;48.770;9.186;2024-01-30T13:48:20;11.90;99.90
47921;DHT22;33686;48.770;9.186;2024-01-30T13:50:45;11.90;99.90
47921;DHT22;33686;48.770;9.186;2024-01-30T13:53:11;11.90;99.90
47921;DHT22;33686;48.770;9.186;2024-01-30T13:55:37;11.90;99.90
47921;DHT22;33686;48.770;9.186;2024-01-30T13:58:05;11.90;99.90
47921;DHT22;33686;48.770;9.186;2024-01-30T14:00:30;12.00;99.90
47921;DHT22;33686;48.770;9.186;2024-01-30T14:02:56;12.00;99.90
47921;DHT22;33686;48.770;9.186;2024-01-30T14:05:24;12.00;99.90
47921;DHT22;33686;48.770;9.186;2024-01-30T14:07:50;12.00;99.90
47921;DHT22;33686;48.770;9.186;2024-01-30T14:10:16;11.90;99.90
47921;DHT22;33686;48.770;9.186;2024-01-30T14:12:43;11.90;99.90
47921;DHT22;33686;48.770;9.186;2024-01-30T14:15:10;11.80;99.90
47921;DHT22;33686;48.770;9.186;2024-01-30T14:17:36;11.80;99.90
47921;DHT22;33686;48.770;9.186;2024-01-30T14:20:03;11.70;99.90
47921;DHT22;33686;48.770;9.186;2024-01-30T14:22:33;11.60;99.90
47921;DHT22;33686;48.770;9.186;2024-01-30T14:24:59;11.60;99.90
47921;DHT22;33686;48.770;9.186;2024-01-30T14:27:25;11.60;99.90
47921;DHT22;33686;48.770;9.186;2024-01-30T14:29:50;11.60;99.90
47921;DHT22;33686;48.770;9.186;2024-01-30T14:32:16;11.60;99.90
47921;DHT22;33686;48.770;9.186;2024-01-30T14:34:41;11.50;99.90
47921;DHT22;33686;48.770;9.186;2024-01-30T14:37:07;11.40;99.90
47921;DHT22;33686;48.770;9.186;2024-01-30T14:39:33;11.40;99.90
47921;DHT22;33686;48.770;9.186;2024-01-30T14:41:59;11.30;99.90
47921;DHT22;33686;48.770;9.186;2024-01-30T14:44:25;11.30;99.90
47921;DHT22;33686;48.770;9.186;2024-01-30T14:46:51;11.20;99.90
47921;DHT22;33686;48.770;9.186;2024-01-30T14:49:17;11.20;99.90
47921;DHT22;33686;48.770;9.186;2024-01-30T14:51:42;11.00;99.90
47921;DHT22;33686;48.770;9.186;2024-01-30T14:54:08;11.00;99.90
47921;DHT22;33686;48.770;9.186;2024-01-30T14:56:34;10.90;99.90
47921;DHT22;33686;48.770;9.186;2024-01-30T14:59:00;10.80;99.90
47921;DHT22;33686;48.770;9.186;2024-01-30T15:01:26;10.80;99.90
47921;DHT22;33686;48.770;9.186;2024-01-30T15:03:52;10.80;99.90
47921;DHT22;33686;48.770;9.186;2024-01-30T15:06:18;10.80;99.90
47921;DHT22;33686;48.770;9.186;2024-01-30T15:08:43;10.80;99.90
47921;DHT22;33686;48.770;9.186;2024-01-30T15:11:10;10.70;99.90
47921;DHT22;33686;48.770;9.186;2024-01-30T15:13:36;10.60;99.90
47921;DHT22;33686;48.770;9.186;2024-01-30T15:16:02;10.60;99.90
47921;DHT22;33686;48.770;9.186;2024-01-30T15:18:30;10.50;99.90
47921;DHT22;33686;48.770;9.186;2024-01-30T15:20:56;10.50;99.90
47921;DHT22;33686;48.770;9.186;2024-01-30T15:23:21;10.50;99.90
47921;DHT22;33686;48.770;9.186;2024-01-30T15:25:47;10.50;99.90
47921;DHT22;33686;48.770;9.186;2024-01-30T15:28:13;10.50;99.90
47921;DHT22;33686;48.770;9.186;2024-01-30T15:30:40;10.50;99.90
47921;DHT22;33686;48.770;9.186;2024-01-30T15:33:11;10.40;99.90
47921;DHT22;33686;48.770;9.186;2024-01-30T15:35:37;10.40;99.90
47921;DHT22;33686;48.770;9.186;2024-01-30T15:38:04;10.40;99.90
47921;DHT22;33686;48.770;9.186;2024-01-30T15:40:34;10.30;99.90
47921;DHT22;33686;48.770;9.186;2024-01-30T15:43:00;10.30;99.90
47921;DHT22;33686;48.770;9.186;2024-01-30T15:45:26;10.40;99.90
47921;DHT22;33686;48.770;9.186;2024-01-30T15:47:52;10.30;99.90
47921;DHT22;33686;48.770;9.186;2024-01-30T15:50:17;10.20;99.90
47921;DHT22;33686;48.770;9.186;2024-01-30T15:52:43;10.20;99.90
47921;DHT22;33686;48.770;9.186;2024-01-30T15:55:09;10.10;99.90
47921;DHT22;33686;48.770;9.186;2024-01-30T15:57:34;10.10;99.90
47921;DHT22;33686;48.770;9.186;2024-01-30T16:00:00;9.90;99.90
47921;DHT22;33686;48.770;9.186;2024-01-30T16:02:26;9.80;99.90
47921;DHT22;33686;48.770;9.186;2024-01-30T16:04:53;9.60;99.90
47921;DHT22;33686;48.770;9.186;2024-01-30T16:07:19;9.70;99.90
47921;DHT22;33686;48.770;9.186;2024-01-30T16:09:45;9.60;99.90
47921;DHT22;33686;48.770;9.186;2024-01-30T16:12:11;9.60;99.90
47921;DHT22;33686;48.770;9.186;2024-01-30T16:14:36;9.50;99.90
47921;DHT22;33686;48.770;9.186;2024-01-30T16:17:02;9.40;99.90
47921;DHT22;33686;48.770;9.186;2024-01-30T16:19:28;9.40;99.90
47921;DHT22;33686;48.770;9.186;2024-01-30T16:21:54;9.30;99.90
47921;DHT22;33686;48.770;9.186;2024-01-30T16:24:19;9.20;99.90
47921;DHT22;33686;48.770;9.186;2024-01-30T16:26:48;9.20;99.90
47921;DHT22;33686;48.770;9.186;2024-01-30T16:29:14;9.20;99.90
47921;DHT22;33686;48.770;9.186;2024-01-30T16:31:40;9.10;99.90
47921;DHT22;33686;48.770;9.186;2024-01-30T16:34:05;9.10;99.90
47921;DHT22;33686;48.770;9.186;2024-01-30T16:36:31;9.00;99.90
47921;DHT22;33686;48.770;9.186;2024-01-30T16:38:57;8.90;99.90
47921;DHT22;33686;48.770;9.186;2024-01-30T16:41:28;8.80;99.90
47921;DHT22;33686;48.770;9.186;2024-01-30T16:43:53;8.80;99.90
47921;DHT22;33686;48.770;9.186;2024-01-30T16:46:19;8.80;99.90
47921;DHT22;33686;48.770;9.186;2024-01-30T16:48:47;8.70;99.90
47921;DHT22;33686;48.770;9.186;2024-01-30T16:51:14;8.70;99.90
47921;DHT22;33686;48.770;9.186;2024-01-30T16:53:40;8.60;99.90
47921;DHT22;33686;48.770;9.186;2024-01-30T16:56:07;8.60;99.90
47921;DHT22;33686;48.770;9.186;2024-01-30T16:58:33;8.60;99.90
47921;DHT22;33686;48.770;9.186;2024-01-30T17:00:58;8.60;99.90
47921;DHT22;33686;48.770;9.186;2024-01-30T17:03:24;8.60;99.90
47921;DHT22;33686;48.770;9.186;2024-01-30T17:05:50;8.60;99.90
47921;DHT22;33686;48.770;9.186;2024-01-30T17:08:22;8.70;99.90
47921;DHT22;33686;48.770;9.186;2024-01-30T17:10:48;8.70;99.90
47921;DHT22;33686;48.770;9.186;2024-01-30T17:13:14;8.60;99.90
47921;DHT22;33686;48.770;9.186;2024-01-30T17:15:39;8.60;99.90
47921;DHT22;33686;48.770;9.186;2024-01-30T17:18:05;8.60;99.90
47921;DHT22;33686;48.770;9.186;2024-01-30T17:20:31;8.70;99.90
47921;DHT22;33686;48.770;9.186;2024-01-30T17:22:56;8.80;99.90
47921;DHT22;33686;48.770;9.186;2024-01-30T17:25:22;8.80;99.90
47921;DHT22;33686;48.770;9.186;2024-01-30T17:27:48;8.70;99.90
47921;DHT22;33686;48.770;9.186;2024-01-30T17:30:20;8.60;99.90
47921;DHT22;33686;48.770;9.186;2024-01-30T17:32:46;8.70;99.90
47921;DHT22;33686;48.770;9.186;2024-01-30T17:35:12;8.60;99.90
47921;DHT22;33686;48.770;9.186;2024-01-30T17:37:37;8.60;99.90
47921;DHT22;33686;48.770;9.186;2024-01-30T17:40:05;8.70;99.90
47921;DHT22;33686;48.770;9.186;2024-01-30T17:42:30;8.70;99.90
47921;DHT22;33686;48.770;9.186;2024-01-30T17:44:56;8.80;99.90
47921;DHT22;33686;48.770;9.186;2024-01-30T17:47:22;8.70;99.90
47921;DHT22;33686;48.770;9.186;2024-01-30T17:49:47;8.60;99.90
47921;DHT22;33686;48.770;9.186;2024-01-30T17:52:13;8.60;99.90
47921;DHT22;33686;48.770;9.186;2024-01-30T17:54:39;8.60;99.90
47921;DHT22;33686;48.770;9.186;2024-01-30T17:57:04;8.70;99.90
47921;DHT22;33686;48.770;9.186;2024-01-30T17:59:30;8.70;99.90
47921;DHT22;33686;48.770;9.186;2024-01-30T18:01:56;8.60;99.90
47921;DHT22;33686;48.770;9.186;2024-01-30T18:04:22;8.60;99.90
47921;DHT22;33686;48.770;9.186;2024-01-30T18:06:52;8.50;99.90
47921;DHT22;33686;48.770;9.186;2024-01-30T18:09:23;8.50;99.90
47921;DHT22;33686;48.770;9.186;2024-01-30T18:11:50;8.50;99.90
47921;DHT22;33686;48.770;9.186;2024-01-30T18:14:15;8.50;99.90
47921;DHT22;33686;48.770;9.186;2024-01-30T18:16:41;8.60;99.90
47921;DHT22;33686;48.770;9.186;2024-01-30T18:19:07;8.50;99.90
47921;DHT22;33686;48.770;9.186;2024-01-30T18:21:33;8.40;99.90
47921;DHT22;33686;48.770;9.186;2024-01-30T18:23:59;8.50;99.90
47921;DHT22;33686;48.770;9.186;2024-01-30T18:26:25;8.40;99.90
47921;DHT22;33686;48.770;9.186;2024-01-30T18:28:52;8.50;99.90
47921;DHT22;33686;48.770;9.186;2024-01-30T18:31:21;8.40;99.90
47921;DHT22;33686;48.770;9.186;2024-01-30T18:33:47;8.40;99.90
47921;DHT22;33686;48.770;9.186;2024-01-30T18:36:17;8.40;99.90
47921;DHT22;33686;48.770;9.186;2024-01-30T18:38:44;8.60;99.90
47921;DHT22;33686;48.770;9.186;2024-01-30T18:41:09;8.80;99.90
47921;DHT22;33686;48.770;9.186;2024-01-30T18:43:35;8.80;99.90
47921;DHT22;33686;48.770;9.186;2024-01-30T18:46:01;8.80;99.90
47921;DHT22;33686;48.770;9.186;2024-01-30T18:48:27;8.70;99.90
47921;DHT22;33686;48.770;9.186;2024-01-30T18:50:52;8.60;99.90
47921;DHT22;33686;48.770;9.186;2024-01-30T18:53:20;8.60;99.90
47921;DHT22;33686;48.770;9.186;2024-01-30T18:55:46;8.60;99.90
47921;DHT22;33686;48.770;9.186;2024-01-30T18:58:14;8.60;99.90
47921;DHT22;33686;48.770;9.186;2024-01-30T19:00:39;8.60;99.90
47921;DHT22;33686;48.770;9.186;2024-01-30T19:03:07;8.60;99.90
47921;DHT22;33686;48.770;9.186;2024-01-30T19:05:33;8.60;99.90
47921;DHT22;33686;48.770;9.186;2024-01-30T19:07:59;8.60;99.90
47921;DHT22;33686;48.770;9.186;2024-01-30T19:10:25;8.60;99.90
47921;DHT22;33686;48.770;9.186;2024-01-30T19:12:52;8.60;99.90
47921;DHT22;33686;48.770;9.186;2024-01-30T19:15:18;8.60;99.90
47921;DHT22;33686;48.770;9.186;2024-01-30T19:17:44;8.70;99.90
47921;DHT22;33686;48.770;9.186;2024-01-30T19:20:10;8.60;99.90
47921;DHT22;33686;48.770;9.186;2024-01-30T19:22:36;8.70;99.90
47921;DHT22;33686;48.770;9.186;2024-01-30T19:25:02;8.70;99.90
47921;DHT22;33686;48.770;9.186;2024-01-30T19:27:29;8.70;99.90
47921;DHT22;33686;48.770;9.186;2024-01-30T19:29:54;8.60;99.90
47921;DHT22;33686;48.770;9.186;2024-01-30T19:32:20;8.60;99.90
47921;DHT22;33686;48.770;9.186;2024-01-30T19:34:46;8.50;99.90
47921;DHT22;33686;48.770;9.186;2024-01-30T19:37:12;8.50;99.90
47921;DHT22;33686;48.770;9.186;2024-01-30T19:39:38;8.50;99.90
47921;DHT22;33686;48.770;9.186;2024-01-30T19:42:04;8.60;99.90
47921;DHT22;33686;48.770;9.186;2024-01-30T19:44:30;8.50;99.90
47921;DHT22;33686;48.770;9.186;2024-01-30T19:46:55;8.50;99.90
47921;DHT22;33686;48.770;9.186;2024-01-30T19:49:26;8.60;99.90
47921;DHT22;33686;48.770;9.186;2024-01-30T19:51:52;8.60;99.90
47921;DHT22;33686;48.770;9.186;2024-01-30T19:54:18;8.70;99.90
47921;DHT22;33686;48.770;9.186;2024-01-30T19:56:45;8.60;99.90
47921;DHT22;33686;48.770;9.186;2024-01-30T19:59:10;8.70;99.90
47921;DHT22;33686;48.770;9.186;2024-01-30T20:01:36;8.70;99.90
47921;DHT22;33686;48.770;9.186;2024-01-30T20:04:02;8.70;99.90
47921;DHT22;33686;48.770;9.186;2024-01-30T20:06:29;8.70;99.90
47921;DHT22;33686;48.770;9.186;2024-01-30T20:08:54;8.70;99.90
47921;DHT22;33686;48.770;9.186;2024-01-30T20:11:21;8.60;99.90
47921;DHT22;33686;48.770;9.186;2024-01-30T20:13:46;8.70;99.90
47921;DHT22;33686;48.770;9.186;2024-01-30T20:16:12;8.60;99.90
47921;DHT22;33686;48.770;9.186;2024-01-30T20:18:39;8.60;99.90
47921;DHT22;33686;48.770;9.186;2024-01-30T20:21:04;8.60;99.90
47921;DHT22;33686;48.770;9.186;2024-01-30T20:23:30;8.60;99.90
47921;DHT22;33686;48.770;9.186;2024-01-30T20:25:57;8.60;99.90
47921;DHT22;33686;48.770;9.186;2024-01-30T20:28:24;8.60;99.90
47921;DHT22;33686;48.770;9.186;2024-01-30T20:30:51;8.60;99.90
47921;DHT22;33686;48.770;9.186;2024-01-30T20:33:16;8.60;99.90
47921;DHT22;33686;48.770;9.186;2024-01-30T20:35:42;8.60;99.90
47921;DHT22;33686;48.770;9.186;2024-01-30T20:38:08;8.50;99.90
47921;DHT22;33686;48.770;9.186;2024-01-30T20:40:34;8.40;99.90
47921;DHT22;33686;48.770;9.186;2024-01-30T20:42:59;8.40;99.90
47921;DHT22;33686;48.770;9.186;2024-01-30T20:45:25;8.30;99.90
47921;DHT22;33686;48.770;9.186;2024-01-30T20:47:51;8.30;99.90
47921;DHT22;33686;48.770;9.186;2024-01-30T20:50:16;8.30;99.90
47921;DHT22;33686;48.770;9.186;2024-01-30T20:52:42;8.20;99.90
47921;DHT22;33686;48.770;9.186;2024-01-30T20:55:08;8.10;99.90
47921;DHT22;33686;48.770;9.186;2024-01-30T20:57:33;8.00;99.90
47921;DHT22;33686;48.770;9.186;2024-01-30T21:00:01;7.90;99.90
47921;DHT22;33686;48.770;9.186;2024-01-30T21:02:27;7.80;99.90
47921;DHT22;33686;48.770;9.186;2024-01-30T21:04:52;7.90;99.90
47921;DHT22;33686;48.770;9.186;2024-01-30T21:07:18;7.70;99.90
47921;DHT22;33686;48.770;9.186;2024-01-30T21:09:44;7.70;99.90
47921;DHT22;33686;48.770;9.186;2024-01-30T21:12:09;7.70;99.90
47921;DHT22;33686;48.770;9.186;2024-01-30T21:14:35;7.70;99.90
47921;DHT22;33686;48.770;9.186;2024-01-30T21:17:01;7.80;99.90
47921;DHT22;33686;48.770;9.186;2024-01-30T21:19:27;7.70;99.90
47921;DHT22;33686;48.770;9.186;2024-01-30T21:21:53;7.60;99.90
47921;DHT22;33686;48.770;9.186;2024-01-30T21:24:19;7.60;99.90
47921;DHT22;33686;48.770;9.186;2024-01-30T21:26:44;7.70;99.90
47921;DHT22;33686;48.770;9.186;2024-01-30T21:29:10;7.80;99.90
47921;DHT22;33686;48.770;9.186;2024-01-30T21:31:35;7.80;99.90
47921;DHT22;33686;48.770;9.186;2024-01-30T21:34:01;7.90;99.90
47921;DHT22;33686;48.770;9.186;2024-01-30T21:36:27;7.90;99.90
47921;DHT22;33686;48.770;9.186;2024-01-30T21:38:52;8.00;99.90
47921;DHT22;33686;48.770;9.186;2024-01-30T21:41:18;8.00;99.90
47921;DHT22;33686;48.770;9.186;2024-01-30T21:43:44;8.00;99.90
47921;DHT22;33686;48.770;9.186;2024-01-30T21:46:11;8.10;99.90
47921;DHT22;33686;48.770;9.186;2024-01-30T21:48:36;8.00;99.90
47921;DHT22;33686;48.770;9.186;2024-01-30T21:51:03;8.10;99.90
47921;DHT22;33686;48.770;9.186;2024-01-30T21:53:29;8.20;99.90
47921;DHT22;33686;48.770;9.186;2024-01-30T21:55:55;8.00;99.90
47921;DHT22;33686;48.770;9.186;2024-01-30T21:58:20;8.00;99.90